SIA38 WSSS-KLAX
Flight info
| Callsign | SIA38 |
|---|---|
| Flight time | N/A |
| Altitude | 31000 |
| Route | TOMAN3A TOMAN L625 AKMON/K0935F320 L625 ANOKI/N0502F320 L625 MEVIN/N0492F330 B462 KAZIK Y59 AZAMA Y57 POROT/N0482F350 OTR11 LEPKI DCT 39N160E 41N170E 43N180E 45N170W/N0476F370 45N160W 43N150W 41N140W 39N130W/N0470F390 DCT DACEM DCT PAINT DCT PIRAT DCT BURGL IRNMN2 |
| Aircraft | B77W/H-SDE1E2E3FGHIJ2J3J4J5M1RWXY/LB1D1 |
Departure
| Time | N/A |
|---|---|
| Airport | Singapore Changi Airport (WSSS) |
Arrival
| Time | 2026-04-26 18:55 |
|---|---|
| Airport | Los Angeles International Airport (KLAX) |
| Time | Latitude | Longitude | Altitude | Speed | Heading |
|---|---|---|---|---|---|
| 2026-04-26 17:59 | 37.65993 | -124.25905 | 31014 ft | 516 kts | 109° |
| 2026-04-26 17:59 | 37.63193 | -124.15946 | 31012 ft | 516 kts | 109° |
| 2026-04-26 18:00 | 37.61185 | -124.08822 | 31009 ft | 516 kts | 109° |
| 2026-04-26 18:00 | 37.58770 | -124.00280 | 31007 ft | 516 kts | 109° |
| 2026-04-26 18:01 | 37.56361 | -123.91789 | 31009 ft | 516 kts | 109° |
| 2026-04-26 18:01 | 37.53941 | -123.83288 | 31009 ft | 516 kts | 109° |
| 2026-04-26 18:02 | 37.51912 | -123.76177 | 31008 ft | 516 kts | 109° |
| 2026-04-26 18:02 | 37.49066 | -123.66237 | 31004 ft | 515 kts | 109° |
| 2026-04-26 18:03 | 37.46630 | -123.57758 | 31005 ft | 515 kts | 109° |
| 2026-04-26 18:03 | 37.44200 | -123.49327 | 31009 ft | 514 kts | 109° |
| 2026-04-26 18:04 | 37.41754 | -123.40863 | 31007 ft | 514 kts | 110° |
| 2026-04-26 18:05 | 37.38066 | -123.28155 | 31007 ft | 514 kts | 110° |
| 2026-04-26 18:05 | 37.35617 | -123.19749 | 31003 ft | 514 kts | 110° |
| 2026-04-26 18:06 | 37.33157 | -123.11331 | 31007 ft | 514 kts | 110° |
| 2026-04-26 18:06 | 37.30677 | -123.02870 | 31008 ft | 513 kts | 110° |
| 2026-04-26 18:07 | 37.28214 | -122.94488 | 31002 ft | 513 kts | 110° |
| 2026-04-26 18:07 | 37.25488 | -122.86245 | 31003 ft | 512 kts | 118° |
| 2026-04-26 18:08 | 37.21685 | -122.78670 | 31018 ft | 510 kts | 126° |
| 2026-04-26 18:08 | 37.17580 | -122.71441 | 30996 ft | 511 kts | 126° |
| 2026-04-26 18:09 | 37.13473 | -122.64169 | 31001 ft | 510 kts | 126° |
| 2026-04-26 18:09 | 37.09403 | -122.56909 | 30999 ft | 510 kts | 126° |
| 2026-04-26 18:10 | 37.05345 | -122.49656 | 30997 ft | 509 kts | 126° |
| 2026-04-26 18:10 | 37.01267 | -122.42385 | 31000 ft | 509 kts | 126° |
| 2026-04-26 18:11 | 36.97207 | -122.35166 | 30999 ft | 509 kts | 126° |
| 2026-04-26 18:11 | 36.93132 | -122.27938 | 31005 ft | 508 kts | 126° |
| 2026-04-26 18:12 | 36.89069 | -122.20747 | 31018 ft | 508 kts | 126° |
| 2026-04-26 18:12 | 36.84972 | -122.13511 | 31023 ft | 507 kts | 126° |
| 2026-04-26 18:13 | 36.80895 | -122.06325 | 31021 ft | 507 kts | 126° |
| 2026-04-26 18:13 | 36.76839 | -121.99193 | 31021 ft | 507 kts | 126° |
| 2026-04-26 18:14 | 36.72759 | -121.92032 | 31025 ft | 507 kts | 126° |
| 2026-04-26 18:14 | 36.68651 | -121.84837 | 31023 ft | 507 kts | 126° |
| 2026-04-26 18:15 | 36.64572 | -121.77709 | 31022 ft | 507 kts | 126° |
| 2026-04-26 18:15 | 36.60476 | -121.70566 | 31014 ft | 507 kts | 126° |
| 2026-04-26 18:16 | 36.56372 | -121.63423 | 31018 ft | 507 kts | 127° |
| 2026-04-26 18:16 | 36.50214 | -121.52736 | 31011 ft | 506 kts | 127° |
| 2026-04-26 18:17 | 36.46110 | -121.45631 | 31020 ft | 506 kts | 127° |
| 2026-04-26 18:17 | 36.42006 | -121.38540 | 31019 ft | 505 kts | 127° |
| 2026-04-26 18:18 | 36.37898 | -121.31457 | 31010 ft | 505 kts | 127° |
| 2026-04-26 18:18 | 36.33793 | -121.24396 | 31007 ft | 504 kts | 127° |
| 2026-04-26 18:19 | 36.29708 | -121.17383 | 31010 ft | 504 kts | 127° |
| 2026-04-26 18:19 | 36.25600 | -121.10344 | 31010 ft | 504 kts | 127° |
| 2026-04-26 18:20 | 36.21472 | -121.03286 | 31007 ft | 504 kts | 127° |
| 2026-04-26 18:20 | 36.18048 | -120.97441 | 31004 ft | 504 kts | 127° |
| 2026-04-26 18:21 | 36.13255 | -120.89279 | 31006 ft | 504 kts | 127° |
| 2026-04-26 18:21 | 36.09129 | -120.82268 | 31010 ft | 504 kts | 128° |
| 2026-04-26 18:22 | 36.05007 | -120.75275 | 31008 ft | 503 kts | 128° |
| 2026-04-26 18:22 | 36.00872 | -120.68277 | 31012 ft | 503 kts | 128° |
| 2026-04-26 18:23 | 35.96766 | -120.61340 | 31023 ft | 503 kts | 128° |
| 2026-04-26 18:23 | 35.92636 | -120.54380 | 31025 ft | 503 kts | 128° |
| 2026-04-26 18:24 | 35.88486 | -120.47398 | 31030 ft | 502 kts | 128° |
| 2026-04-26 18:24 | 35.84366 | -120.40480 | 31029 ft | 501 kts | 128° |
| 2026-04-26 18:25 | 35.80238 | -120.33563 | 31023 ft | 501 kts | 128° |
| 2026-04-26 18:25 | 35.76112 | -120.26661 | 31017 ft | 501 kts | 128° |
| 2026-04-26 18:26 | 35.71979 | -120.19761 | 31000 ft | 501 kts | 128° |
| 2026-04-26 18:26 | 35.67832 | -120.12858 | 30998 ft | 499 kts | 129° |
| 2026-04-26 18:27 | 35.65523 | -120.09753 | 30987 ft | 494 kts | 144° |
| 2026-04-26 18:27 | 35.62678 | -120.07482 | 31028 ft | 485 kts | 153° |
| 2026-04-26 18:27 | 35.56892 | -120.03376 | 30911 ft | 471 kts | 152° |
| 2026-04-26 18:28 | 35.54081 | -120.01327 | 30722 ft | 465 kts | 152° |
| 2026-04-26 18:28 | 35.51317 | -119.99275 | 30426 ft | 463 kts | 152° |
| 2026-04-26 18:28 | 35.48597 | -119.97235 | 30062 ft | 462 kts | 151° |
| 2026-04-26 18:28 | 35.45851 | -119.95166 | 29640 ft | 461 kts | 151° |
| 2026-04-26 18:29 | 35.43130 | -119.93115 | 29263 ft | 459 kts | 151° |
| 2026-04-26 18:29 | 35.40416 | -119.91071 | 28918 ft | 456 kts | 151° |
| 2026-04-26 18:29 | 35.37713 | -119.89040 | 28589 ft | 453 kts | 151° |
| 2026-04-26 18:29 | 35.35054 | -119.87045 | 28255 ft | 451 kts | 151° |
| 2026-04-26 18:30 | 35.32378 | -119.85040 | 27912 ft | 449 kts | 151° |
| 2026-04-26 18:30 | 35.29701 | -119.83035 | 27567 ft | 447 kts | 151° |
| 2026-04-26 18:30 | 35.27110 | -119.80985 | 27230 ft | 447 kts | 147° |
| 2026-04-26 18:30 | 35.24609 | -119.78712 | 26905 ft | 446 kts | 144° |
| 2026-04-26 18:31 | 35.22196 | -119.76387 | 26585 ft | 444 kts | 143° |
| 2026-04-26 18:31 | 35.19762 | -119.74020 | 26275 ft | 442 kts | 144° |
| 2026-04-26 18:31 | 35.17369 | -119.71715 | 26054 ft | 438 kts | 144° |
| 2026-04-26 18:31 | 35.14984 | -119.69449 | 26014 ft | 435 kts | 144° |
| 2026-04-26 18:32 | 35.12569 | -119.67180 | 25998 ft | 437 kts | 145° |
| 2026-04-26 18:32 | 35.10156 | -119.64930 | 26003 ft | 441 kts | 145° |
| 2026-04-26 18:32 | 35.07700 | -119.62646 | 25996 ft | 442 kts | 145° |
| 2026-04-26 18:32 | 35.05284 | -119.60401 | 25986 ft | 442 kts | 145° |
| 2026-04-26 18:33 | 35.02808 | -119.58101 | 25978 ft | 441 kts | 145° |
| 2026-04-26 18:33 | 35.00397 | -119.55862 | 25977 ft | 441 kts | 145° |
| 2026-04-26 18:33 | 34.97946 | -119.53587 | 25980 ft | 440 kts | 145° |
| 2026-04-26 18:33 | 34.95505 | -119.51321 | 25979 ft | 440 kts | 145° |
| 2026-04-26 18:34 | 34.93091 | -119.49084 | 25979 ft | 440 kts | 145° |
| 2026-04-26 18:34 | 34.90654 | -119.46834 | 25980 ft | 439 kts | 146° |
| 2026-04-26 18:34 | 34.88199 | -119.44620 | 25973 ft | 439 kts | 146° |
| 2026-04-26 18:34 | 34.85734 | -119.42424 | 25975 ft | 439 kts | 146° |
| 2026-04-26 18:35 | 34.83272 | -119.40234 | 25977 ft | 439 kts | 146° |
| 2026-04-26 18:35 | 34.80809 | -119.38039 | 25980 ft | 439 kts | 146° |
| 2026-04-26 18:35 | 34.78349 | -119.35842 | 25977 ft | 439 kts | 146° |
| 2026-04-26 18:35 | 34.75910 | -119.33663 | 25969 ft | 433 kts | 147° |
| 2026-04-26 18:36 | 34.73483 | -119.31507 | 25963 ft | 428 kts | 147° |
| 2026-04-26 18:36 | 34.71071 | -119.29399 | 25965 ft | 426 kts | 147° |
| 2026-04-26 18:36 | 34.68667 | -119.27308 | 25969 ft | 425 kts | 147° |
| 2026-04-26 18:36 | 34.66273 | -119.25221 | 25804 ft | 423 kts | 147° |
| 2026-04-26 18:37 | 34.63877 | -119.23136 | 25410 ft | 421 kts | 148° |
| 2026-04-26 18:37 | 34.61498 | -119.21083 | 24957 ft | 419 kts | 148° |
| 2026-04-26 18:37 | 34.59121 | -119.19038 | 24516 ft | 418 kts | 148° |
| 2026-04-26 18:37 | 34.56755 | -119.17002 | 24092 ft | 416 kts | 147° |
| 2026-04-26 18:38 | 34.54413 | -119.14960 | 23698 ft | 413 kts | 147° |
| 2026-04-26 18:38 | 34.52097 | -119.12904 | 23272 ft | 411 kts | 146° |
| 2026-04-26 18:38 | 34.49830 | -119.10884 | 22835 ft | 409 kts | 146° |
| 2026-04-26 18:38 | 34.47538 | -119.08849 | 22394 ft | 406 kts | 146° |
| 2026-04-26 18:39 | 34.45242 | -119.06818 | 21923 ft | 407 kts | 146° |
| 2026-04-26 18:39 | 34.43705 | -119.05465 | 21784 ft | 414 kts | 147° |
| 2026-04-26 18:39 | 34.41609 | -119.03643 | 21743 ft | 409 kts | 147° |
| 2026-04-26 18:39 | 34.39335 | -119.01674 | 21378 ft | 392 kts | 147° |
| 2026-04-26 18:40 | 34.37159 | -118.99791 | 20932 ft | 376 kts | 147° |
| 2026-04-26 18:40 | 34.35075 | -118.97989 | 20510 ft | 361 kts | 147° |
| 2026-04-26 18:40 | 34.33050 | -118.96214 | 20054 ft | 362 kts | 146° |
| 2026-04-26 18:40 | 34.31029 | -118.94379 | 19607 ft | 365 kts | 145° |
| 2026-04-26 18:41 | 34.29004 | -118.92528 | 18969 ft | 360 kts | 145° |
| 2026-04-26 18:41 | 34.27035 | -118.90735 | 18237 ft | 356 kts | 145° |
| 2026-04-26 18:41 | 34.25071 | -118.88951 | 17435 ft | 351 kts | 145° |
| 2026-04-26 18:41 | 34.23135 | -118.87174 | 16645 ft | 347 kts | 145° |
| 2026-04-26 18:42 | 34.21224 | -118.85414 | 15889 ft | 343 kts | 145° |
| 2026-04-26 18:42 | 34.19336 | -118.83678 | 15147 ft | 339 kts | 145° |
| 2026-04-26 18:42 | 34.17486 | -118.81979 | 14419 ft | 337 kts | 146° |
| 2026-04-26 18:42 | 34.15651 | -118.80242 | 13707 ft | 334 kts | 142° |
| 2026-04-26 18:43 | 34.13913 | -118.78375 | 12922 ft | 331 kts | 140° |
| 2026-04-26 18:43 | 34.12221 | -118.76487 | 12161 ft | 329 kts | 140° |
| 2026-04-26 18:43 | 34.10547 | -118.74625 | 11432 ft | 326 kts | 140° |
| 2026-04-26 18:43 | 34.08901 | -118.72815 | 10708 ft | 323 kts | 141° |
| 2026-04-26 18:44 | 34.07229 | -118.70995 | 10022 ft | 321 kts | 140° |
| 2026-04-26 18:44 | 34.05577 | -118.69202 | 9360 ft | 313 kts | 140° |
| 2026-04-26 18:44 | 34.04529 | -118.68061 | 9218 ft | 298 kts | 141° |
| 2026-04-26 18:44 | 34.03215 | -118.66166 | 8976 ft | 299 kts | 116° |
| 2026-04-26 18:45 | 34.02579 | -118.62943 | 9014 ft | 303 kts | 95° |
| 2026-04-26 18:45 | 34.02369 | -118.60416 | 9007 ft | 302 kts | 95° |
| 2026-04-26 18:45 | 34.02222 | -118.58720 | 8995 ft | 300 kts | 96° |
| 2026-04-26 18:45 | 34.01924 | -118.55416 | 8833 ft | 301 kts | 96° |
| 2026-04-26 18:46 | 34.01771 | -118.53743 | 8598 ft | 303 kts | 96° |
| 2026-04-26 18:46 | 34.01536 | -118.51214 | 8285 ft | 301 kts | 96° |
| 2026-04-26 18:46 | 34.01303 | -118.48739 | 8101 ft | 294 kts | 97° |
| 2026-04-26 18:46 | 34.01078 | -118.46291 | 7745 ft | 291 kts | 95° |
| 2026-04-26 18:47 | 34.01198 | -118.43890 | 7386 ft | 285 kts | 78° |
| 2026-04-26 18:47 | 34.01629 | -118.41570 | 7084 ft | 282 kts | 76° |
| 2026-04-26 18:47 | 34.02068 | -118.39307 | 6762 ft | 280 kts | 76° |
| 2026-04-26 18:47 | 34.02487 | -118.37029 | 6445 ft | 277 kts | 77° |
| 2026-04-26 18:48 | 34.02868 | -118.34765 | 6104 ft | 273 kts | 81° |
| 2026-04-26 18:48 | 34.03105 | -118.32553 | 5722 ft | 259 kts | 83° |
| 2026-04-26 18:48 | 34.03301 | -118.30470 | 5416 ft | 243 kts | 83° |
| 2026-04-26 18:48 | 34.03402 | -118.29383 | 5231 ft | 244 kts | 82° |
| 2026-04-26 18:49 | 34.03626 | -118.27329 | 4946 ft | 247 kts | 82° |
| 2026-04-26 18:49 | 34.03853 | -118.25279 | 4598 ft | 246 kts | 81° |
| 2026-04-26 18:49 | 34.04075 | -118.23239 | 4261 ft | 244 kts | 82° |
| 2026-04-26 18:49 | 34.04276 | -118.21219 | 3910 ft | 240 kts | 88° |
| 2026-04-26 18:50 | 34.03955 | -118.19327 | 3541 ft | 231 kts | 122° |
| 2026-04-26 18:50 | 34.02882 | -118.18006 | 3253 ft | 219 kts | 158° |
| 2026-04-26 18:50 | 34.01427 | -118.17468 | 2983 ft | 220 kts | 172° |
| 2026-04-26 18:50 | 33.99911 | -118.17166 | 2665 ft | 215 kts | 187° |
| 2026-04-26 18:51 | 33.98602 | -118.17732 | 2627 ft | 199 kts | 221° |
| 2026-04-26 18:51 | 33.97612 | -118.18917 | 2619 ft | 205 kts | 230° |
| 2026-04-26 18:51 | 33.96722 | -118.20257 | 2598 ft | 205 kts | 244° |
| 2026-04-26 18:51 | 33.96379 | -118.21927 | 2628 ft | 208 kts | 267° |
| 2026-04-26 18:52 | 33.96517 | -118.23650 | 2685 ft | 208 kts | 280° |
| 2026-04-26 18:52 | 33.96846 | -118.25353 | 2591 ft | 205 kts | 278° |
| 2026-04-26 18:52 | 33.96748 | -118.27025 | 2206 ft | 198 kts | 256° |
| 2026-04-26 18:52 | 33.96430 | -118.28627 | 1751 ft | 197 kts | 259° |
| 2026-04-26 18:53 | 33.96218 | -118.30217 | 1491 ft | 183 kts | 262° |
| 2026-04-26 18:53 | 33.96087 | -118.31647 | 1351 ft | 169 kts | 264° |
| 2026-04-26 18:53 | 33.95973 | -118.33045 | 1067 ft | 166 kts | 263° |
| 2026-04-26 18:53 | 33.95829 | -118.34422 | 745 ft | 166 kts | 260° |
| 2026-04-26 18:54 | 33.95674 | -118.35768 | 665 ft | 160 kts | 262° |
| 2026-04-26 18:54 | 33.95545 | -118.37065 | 519 ft | 151 kts | 263° |
| 2026-04-26 18:54 | 33.95401 | -118.38264 | 351 ft | 139 kts | 265° |
| 2026-04-26 18:54 | 33.95295 | -118.39403 | 207 ft | 134 kts | 263° |
| 2026-04-26 18:55 | 33.95185 | -118.40435 | 113 ft | 113 kts | 263° |
| 2026-04-26 18:55 | 33.95097 | -118.41310 | 111 ft | 94 kts | 262° |
| 2026-04-26 18:55 | 33.95035 | -118.41911 | 109 ft | 51 kts | 263° |
| 2026-04-26 18:55 | 33.94999 | -118.42214 | 111 ft | 35 kts | 256° |
| 2026-04-26 18:56 | 33.94922 | -118.42392 | 109 ft | 17 kts | 229° |
| 2026-04-26 18:56 | 33.94825 | -118.42481 | 111 ft | 19 kts | 198° |
| 2026-04-26 18:56 | 33.94740 | -118.42484 | 112 ft | 5 kts | 173° |
| 2026-04-26 18:56 | 33.94689 | -118.42478 | 108 ft | 2 kts | 174° |
| 2026-04-26 18:57 | 33.94681 | -118.42477 | 107 ft | 0 kts | 174° |
| 2026-04-26 18:57 | 33.94620 | -118.42464 | 103 ft | 11 kts | 157° |
| 2026-04-26 18:57 | 33.94591 | -118.42385 | 104 ft | 11 kts | 85° |
| 2026-04-26 18:58 | 33.94600 | -118.42294 | 102 ft | 11 kts | 81° |
| 2026-04-26 18:58 | 33.94611 | -118.42205 | 103 ft | 11 kts | 82° |
| 2026-04-26 18:58 | 33.94618 | -118.42114 | 101 ft | 11 kts | 85° |
| 2026-04-26 18:58 | 33.94624 | -118.42024 | 100 ft | 11 kts | 85° |
| 2026-04-26 18:59 | 33.94629 | -118.41933 | 103 ft | 11 kts | 88° |
| 2026-04-26 18:59 | 33.94633 | -118.41842 | 100 ft | 11 kts | 84° |
| 2026-04-26 18:59 | 33.94642 | -118.41751 | 100 ft | 11 kts | 81° |
| 2026-04-26 18:59 | 33.94653 | -118.41665 | 100 ft | 9 kts | 83° |
| 2026-04-26 19:00 | 33.94660 | -118.41590 | 103 ft | 9 kts | 83° |
| 2026-04-26 19:00 | 33.94666 | -118.41535 | 102 ft | 1 kts | 83° |
| 2026-04-26 19:01 | 33.94666 | -118.41531 | 100 ft | 4 kts | 83° |
| 2026-04-26 19:01 | 33.94673 | -118.41464 | 100 ft | 8 kts | 83° |
| 2026-04-26 19:01 | 33.94669 | -118.41406 | 103 ft | 7 kts | 115° |
| 2026-04-26 19:01 | 33.94630 | -118.41377 | 102 ft | 7 kts | 166° |
| 2026-04-26 19:02 | 33.94583 | -118.41368 | 100 ft | 7 kts | 173° |
| 2026-04-26 19:02 | 33.94535 | -118.41362 | 101 ft | 7 kts | 174° |
| 2026-04-26 19:02 | 33.94495 | -118.41334 | 100 ft | 7 kts | 122° |
| 2026-04-26 19:02 | 33.94486 | -118.41297 | 101 ft | 7 kts | 106° |
| 2026-04-26 19:03 | 33.94454 | -118.41248 | 98 ft | 4 kts | 122° |
| 2026-04-26 19:03 | 33.94454 | -118.41210 | 98 ft | 5 kts | 84° |
| 2026-04-26 19:03 | 33.94457 | -118.41174 | 99 ft | 4 kts | 85° |
| 2026-04-26 19:03 | 33.94458 | -118.41157 | 102 ft | 1 kts | 85° |
| 2026-04-26 19:04 | 33.94460 | -118.41139 | 102 ft | 0 kts | 84° |
| 2026-04-26 19:04 | 33.94460 | -118.41137 | 102 ft | 0 kts | 84° |